Pagina principale
METAR-TAF:

METAR-TAF

Aeroporti :

Kecskemét, Ungheria

latitudine: 46-55N, longitudine: 019-45E, altezza: 113 m

Osservazione

Il bollettino è stato emesso 16 minuti fa, alle 19:15 UTC
Vento calmo
Temperature 14°C
Umidità 67%
Pressione 1018 hPa
Visibilità 10 km o più
nessuna nube inferiore a 1500 m e nessun cumulonembo

METAR: LHKE 231915Z 00000KT CAVOK 14/08 Q1018 NOSIG RMK BLU

Ora: 21:31 (19:31 UTC)

Previsione

Il bollettino è stato emesso 2 ore e 16 minuti fa, alle 17:15 UTC
Previsione valida dal 23 alle 18 UTC al 24 alle 03 UTC
Vento 6 kt da ovest
Visibilità 10 km o più
nessuna nube inferiore a 1500 m e nessun cumulonembo

TAF: LHKE 231715Z 2318/2403 27006KT CAVOK

Osservazioni e previsioni meteorologiche di più di 4000 aeroporti (messaggi METAR e TAF).

Le stazioni disponibili sono rappresentate dai dischi gialli e rossi sulla carta.

Puntare il mouse per vedere il nome della stazione.

Clicca sopra per visualizzare le osservazioni e previsioni meteorologiche.

Per cambiare la mappa : fare clic sui pulsanti verdi con una croce nera per ingrandire, il pulsante verde con un trattino per diminuire, o sulla freccia verde per le mappe adiacenti.


METAR-TAF: